sensor_id;sensor_type;location;lat;lon;timestamp;temperature;humidity
4461;DHT22;2243;48.812;9.232;2023-01-15T00:00:25;11.70;99.90
4461;DHT22;2243;48.812;9.232;2023-01-15T00:02:56;11.60;99.90
4461;DHT22;2243;48.812;9.232;2023-01-15T00:05:27;11.60;99.90
4461;DHT22;2243;48.812;9.232;2023-01-15T00:07:58;11.60;99.90
4461;DHT22;2243;48.812;9.232;2023-01-15T00:10:29;11.50;99.90
4461;DHT22;2243;48.812;9.232;2023-01-15T00:13:00;11.60;99.90
4461;DHT22;2243;48.812;9.232;2023-01-15T00:15:31;11.60;99.90
4461;DHT22;2243;48.812;9.232;2023-01-15T00:18:02;11.50;99.90
4461;DHT22;2243;48.812;9.232;2023-01-15T00:20:33;11.60;99.90
4461;DHT22;2243;48.812;9.232;2023-01-15T00:23:04;11.50;99.90
4461;DHT22;2243;48.812;9.232;2023-01-15T00:25:35;11.50;99.90
4461;DHT22;2243;48.812;9.232;2023-01-15T00:28:24;11.50;99.90
4461;DHT22;2243;48.812;9.232;2023-01-15T00:30:55;11.60;99.90
4461;DHT22;2243;48.812;9.232;2023-01-15T00:33:26;11.60;99.90
4461;DHT22;2243;48.812;9.232;2023-01-15T00:35:57;11.60;99.90
4461;DHT22;2243;48.812;9.232;2023-01-15T00:38:28;11.70;99.90
4461;DHT22;2243;48.812;9.232;2023-01-15T00:40:59;11.80;99.90
4461;DHT22;2243;48.812;9.232;2023-01-15T00:43:30;11.70;99.90
4461;DHT22;2243;48.812;9.232;2023-01-15T00:46:01;11.70;99.90
4461;DHT22;2243;48.812;9.232;2023-01-15T00:48:32;11.70;99.90
4461;DHT22;2243;48.812;9.232;2023-01-15T00:51:03;11.70;99.90
4461;DHT22;2243;48.812;9.232;2023-01-15T00:53:34;11.60;99.90
4461;DHT22;2243;48.812;9.232;2023-01-15T00:56:05;11.60;99.90
4461;DHT22;2243;48.812;9.232;2023-01-15T00:58:36;11.70;99.90
4461;DHT22;2243;48.812;9.232;2023-01-15T01:01:07;11.80;99.90
4461;DHT22;2243;48.812;9.232;2023-01-15T01:03:38;11.80;99.90
4461;DHT22;2243;48.812;9.232;2023-01-15T01:06:10;11.80;99.90
4461;DHT22;2243;48.812;9.232;2023-01-15T01:08:42;11.80;99.90
4461;DHT22;2243;48.812;9.232;2023-01-15T01:11:17;11.70;99.90
4461;DHT22;2243;48.812;9.232;2023-01-15T01:13:50;11.70;99.90
4461;DHT22;2243;48.812;9.232;2023-01-15T01:16:35;11.80;99.90
4461;DHT22;2243;48.812;9.232;2023-01-15T01:19:13;11.80;99.90
4461;DHT22;2243;48.812;9.232;2023-01-15T01:21:45;11.80;99.90
4461;DHT22;2243;48.812;9.232;2023-01-15T01:24:19;11.80;99.90
4461;DHT22;2243;48.812;9.232;2023-01-15T01:26:51;11.90;99.90
4461;DHT22;2243;48.812;9.232;2023-01-15T01:29:24;11.80;99.90
4461;DHT22;2243;48.812;9.232;2023-01-15T01:31:55;11.80;99.90
4461;DHT22;2243;48.812;9.232;2023-01-15T01:34:26;11.80;99.90
4461;DHT22;2243;48.812;9.232;2023-01-15T01:36:57;11.80;99.90
4461;DHT22;2243;48.812;9.232;2023-01-15T01:39:28;11.90;99.90
4461;DHT22;2243;48.812;9.232;2023-01-15T01:41:59;11.90;99.90
4461;DHT22;2243;48.812;9.232;2023-01-15T01:47:07;12.00;99.90
4461;DHT22;2243;48.812;9.232;2023-01-15T01:49:58;12.00;99.90
4461;DHT22;2243;48.812;9.232;2023-01-15T01:52:47;12.10;99.90
4461;DHT22;2243;48.812;9.232;2023-01-15T01:55:22;12.10;99.90
4461;DHT22;2243;48.812;9.232;2023-01-15T01:57:57;12.00;99.90
4461;DHT22;2243;48.812;9.232;2023-01-15T02:00:30;12.10;99.90
4461;DHT22;2243;48.812;9.232;2023-01-15T02:03:05;12.00;99.90
4461;DHT22;2243;48.812;9.232;2023-01-15T02:05:39;11.90;99.90
4461;DHT22;2243;48.812;9.232;2023-01-15T02:08:14;12.00;99.90
4461;DHT22;2243;48.812;9.232;2023-01-15T02:10:54;12.00;99.90
4461;DHT22;2243;48.812;9.232;2023-01-15T02:16:41;12.00;99.90
4461;DHT22;2243;48.812;9.232;2023-01-15T02:25:20;12.00;99.90
4461;DHT22;2243;48.812;9.232;2023-01-15T02:28:12;11.90;99.90
4461;DHT22;2243;48.812;9.232;2023-01-15T02:30:49;11.90;99.90
4461;DHT22;2243;48.812;9.232;2023-01-15T02:33:38;12.00;99.90
4461;DHT22;2243;48.812;9.232;2023-01-15T02:36:14;12.00;99.90
4461;DHT22;2243;48.812;9.232;2023-01-15T02:38:47;12.00;99.90
4461;DHT22;2243;48.812;9.232;2023-01-15T02:41:21;12.00;99.90
4461;DHT22;2243;48.812;9.232;2023-01-15T02:43:56;12.00;99.90
4461;DHT22;2243;48.812;9.232;2023-01-15T02:46:32;12.00;99.90
4461;DHT22;2243;48.812;9.232;2023-01-15T02:49:06;12.00;99.90
4461;DHT22;2243;48.812;9.232;2023-01-15T02:52:04;11.90;99.90
4461;DHT22;2243;48.812;9.232;2023-01-15T02:55:02;12.00;99.90
4461;DHT22;2243;48.812;9.232;2023-01-15T02:57:38;12.00;99.90
4461;DHT22;2243;48.812;9.232;2023-01-15T03:00:13;12.00;99.90
4461;DHT22;2243;48.812;9.232;2023-01-15T03:02:50;12.00;99.90
4461;DHT22;2243;48.812;9.232;2023-01-15T03:05:35;12.00;99.90
4461;DHT22;2243;48.812;9.232;2023-01-15T03:08:10;11.90;99.90
4461;DHT22;2243;48.812;9.232;2023-01-15T03:13:30;11.90;99.90
4461;DHT22;2243;48.812;9.232;2023-01-15T03:16:37;11.90;99.90
4461;DHT22;2243;48.812;9.232;2023-01-15T03:19:27;11.90;99.90
4461;DHT22;2243;48.812;9.232;2023-01-15T03:22:26;11.90;99.90
4461;DHT22;2243;48.812;9.232;2023-01-15T03:25:03;11.90;99.90
4461;DHT22;2243;48.812;9.232;2023-01-15T03:27:36;11.90;99.90
4461;DHT22;2243;48.812;9.232;2023-01-15T03:30:11;11.90;99.90
4461;DHT22;2243;48.812;9.232;2023-01-15T03:32:44;11.80;99.90
4461;DHT22;2243;48.812;9.232;2023-01-15T03:35:48;11.70;99.90
4461;DHT22;2243;48.812;9.232;2023-01-15T03:38:28;11.80;99.90
4461;DHT22;2243;48.812;9.232;2023-01-15T03:47:17;11.90;99.90
4461;DHT22;2243;48.812;9.232;2023-01-15T03:55:54;12.00;99.90
4461;DHT22;2243;48.812;9.232;2023-01-15T03:58:44;12.10;99.90
4461;DHT22;2243;48.812;9.232;2023-01-15T04:01:18;12.10;99.90
4461;DHT22;2243;48.812;9.232;2023-01-15T04:03:54;12.20;99.90
4461;DHT22;2243;48.812;9.232;2023-01-15T04:06:29;12.30;99.90
4461;DHT22;2243;48.812;9.232;2023-01-15T04:09:05;12.30;99.90
4461;DHT22;2243;48.812;9.232;2023-01-15T04:11:37;12.40;99.90
4461;DHT22;2243;48.812;9.232;2023-01-15T04:14:12;12.50;99.90
4461;DHT22;2243;48.812;9.232;2023-01-15T04:16:43;12.60;99.90
4461;DHT22;2243;48.812;9.232;2023-01-15T04:19:14;12.60;99.90
4461;DHT22;2243;48.812;9.232;2023-01-15T04:21:45;12.70;99.90
4461;DHT22;2243;48.812;9.232;2023-01-15T04:24:16;12.70;99.90
4461;DHT22;2243;48.812;9.232;2023-01-15T04:26:47;12.70;99.90
4461;DHT22;2243;48.812;9.232;2023-01-15T04:29:18;12.80;99.90
4461;DHT22;2243;48.812;9.232;2023-01-15T04:31:49;12.80;99.90
4461;DHT22;2243;48.812;9.232;2023-01-15T04:34:26;12.80;99.90
4461;DHT22;2243;48.812;9.232;2023-01-15T04:36:58;12.90;99.90
4461;DHT22;2243;48.812;9.232;2023-01-15T04:39:29;12.90;99.90
4461;DHT22;2243;48.812;9.232;2023-01-15T04:42:00;12.80;99.90
4461;DHT22;2243;48.812;9.232;2023-01-15T04:44:50;12.80;99.90
4461;DHT22;2243;48.812;9.232;2023-01-15T04:47:21;12.80;99.90
4461;DHT22;2243;48.812;9.232;2023-01-15T04:49:52;12.70;99.90
4461;DHT22;2243;48.812;9.232;2023-01-15T04:52:25;12.70;99.90
4461;DHT22;2243;48.812;9.232;2023-01-15T04:54:56;12.70;99.90
4461;DHT22;2243;48.812;9.232;2023-01-15T04:57:27;12.70;99.90
4461;DHT22;2243;48.812;9.232;2023-01-15T04:59:58;12.70;99.90
4461;DHT22;2243;48.812;9.232;2023-01-15T05:02:29;12.70;99.90
4461;DHT22;2243;48.812;9.232;2023-01-15T05:05:00;12.70;99.90
4461;DHT22;2243;48.812;9.232;2023-01-15T05:07:31;12.70;99.90
4461;DHT22;2243;48.812;9.232;2023-01-15T05:10:02;12.80;99.90
4461;DHT22;2243;48.812;9.232;2023-01-15T05:12:33;12.70;99.90
4461;DHT22;2243;48.812;9.232;2023-01-15T05:15:04;12.70;99.90
4461;DHT22;2243;48.812;9.232;2023-01-15T05:17:36;12.70;99.90
4461;DHT22;2243;48.812;9.232;2023-01-15T05:20:07;12.70;99.90
4461;DHT22;2243;48.812;9.232;2023-01-15T05:22:38;12.70;99.90
4461;DHT22;2243;48.812;9.232;2023-01-15T05:25:09;12.70;99.90
4461;DHT22;2243;48.812;9.232;2023-01-15T05:27:40;12.00;99.90
4461;DHT22;2243;48.812;9.232;2023-01-15T05:30:12;11.20;99.90
4461;DHT22;2243;48.812;9.232;2023-01-15T05:32:43;10.30;99.90
4461;DHT22;2243;48.812;9.232;2023-01-15T05:35:14;9.80;99.90
4461;DHT22;2243;48.812;9.232;2023-01-15T05:37:45;9.40;99.90
4461;DHT22;2243;48.812;9.232;2023-01-15T05:40:16;9.20;99.90
4461;DHT22;2243;48.812;9.232;2023-01-15T05:42:47;9.10;99.90
4461;DHT22;2243;48.812;9.232;2023-01-15T05:45:18;9.00;99.90
4461;DHT22;2243;48.812;9.232;2023-01-15T05:47:52;8.90;99.90
4461;DHT22;2243;48.812;9.232;2023-01-15T05:50:23;8.70;99.90
4461;DHT22;2243;48.812;9.232;2023-01-15T05:52:54;8.70;99.90
4461;DHT22;2243;48.812;9.232;2023-01-15T05:55:26;8.60;99.90
4461;DHT22;2243;48.812;9.232;2023-01-15T05:57:57;8.60;99.90
4461;DHT22;2243;48.812;9.232;2023-01-15T06:00:28;8.60;99.90
4461;DHT22;2243;48.812;9.232;2023-01-15T06:03:00;8.60;99.90
4461;DHT22;2243;48.812;9.232;2023-01-15T06:05:31;8.50;99.90
4461;DHT22;2243;48.812;9.232;2023-01-15T06:08:02;8.50;99.90
4461;DHT22;2243;48.812;9.232;2023-01-15T06:10:33;8.40;99.90
4461;DHT22;2243;48.812;9.232;2023-01-15T06:13:03;8.40;99.90
4461;DHT22;2243;48.812;9.232;2023-01-15T06:15:34;8.40;99.90
4461;DHT22;2243;48.812;9.232;2023-01-15T06:18:05;8.40;99.90
4461;DHT22;2243;48.812;9.232;2023-01-15T06:20:37;8.40;99.90
4461;DHT22;2243;48.812;9.232;2023-01-15T06:23:09;8.40;99.90
4461;DHT22;2243;48.812;9.232;2023-01-15T06:25:40;8.40;99.90
4461;DHT22;2243;48.812;9.232;2023-01-15T06:28:11;8.40;99.90
4461;DHT22;2243;48.812;9.232;2023-01-15T06:30:42;8.40;99.90
4461;DHT22;2243;48.812;9.232;2023-01-15T06:33:12;8.40;99.90
4461;DHT22;2243;48.812;9.232;2023-01-15T06:35:43;8.50;99.90
4461;DHT22;2243;48.812;9.232;2023-01-15T06:38:14;8.40;99.90
4461;DHT22;2243;48.812;9.232;2023-01-15T06:40:45;8.40;99.90
4461;DHT22;2243;48.812;9.232;2023-01-15T06:43:16;8.20;99.90
4461;DHT22;2243;48.812;9.232;2023-01-15T06:46:07;8.20;99.90
4461;DHT22;2243;48.812;9.232;2023-01-15T06:48:57;8.20;99.90
4461;DHT22;2243;48.812;9.232;2023-01-15T06:51:29;8.10;99.90
4461;DHT22;2243;48.812;9.232;2023-01-15T06:54:00;8.00;99.90
4461;DHT22;2243;48.812;9.232;2023-01-15T06:56:31;7.80;99.90
4461;DHT22;2243;48.812;9.232;2023-01-15T06:59:02;7.80;99.90
4461;DHT22;2243;48.812;9.232;2023-01-15T07:01:33;7.70;99.90
4461;DHT22;2243;48.812;9.232;2023-01-15T07:04:04;7.60;99.90
4461;DHT22;2243;48.812;9.232;2023-01-15T07:06:35;7.40;99.90
4461;DHT22;2243;48.812;9.232;2023-01-15T07:09:06;7.40;99.90
4461;DHT22;2243;48.812;9.232;2023-01-15T07:11:37;7.40;99.90
4461;DHT22;2243;48.812;9.232;2023-01-15T07:14:23;7.30;99.90
4461;DHT22;2243;48.812;9.232;2023-01-15T07:16:56;7.20;99.90
4461;DHT22;2243;48.812;9.232;2023-01-15T07:19:28;7.10;99.90
4461;DHT22;2243;48.812;9.232;2023-01-15T07:21:59;7.10;99.90
4461;DHT22;2243;48.812;9.232;2023-01-15T07:24:31;7.00;99.90
4461;DHT22;2243;48.812;9.232;2023-01-15T07:27:02;6.90;99.90
4461;DHT22;2243;48.812;9.232;2023-01-15T07:29:33;6.90;99.90
4461;DHT22;2243;48.812;9.232;2023-01-15T07:32:04;6.80;99.90
4461;DHT22;2243;48.812;9.232;2023-01-15T07:34:36;6.60;99.90
4461;DHT22;2243;48.812;9.232;2023-01-15T07:37:06;6.60;99.90
4461;DHT22;2243;48.812;9.232;2023-01-15T07:39:37;6.60;99.90
4461;DHT22;2243;48.812;9.232;2023-01-15T07:42:09;6.50;99.90
4461;DHT22;2243;48.812;9.232;2023-01-15T07:44:59;6.50;99.90
4461;DHT22;2243;48.812;9.232;2023-01-15T07:47:48;6.60;99.90
4461;DHT22;2243;48.812;9.232;2023-01-15T07:50:38;6.60;99.90
4461;DHT22;2243;48.812;9.232;2023-01-15T07:53:10;6.70;99.90
4461;DHT22;2243;48.812;9.232;2023-01-15T07:55:40;6.60;99.90
4461;DHT22;2243;48.812;9.232;2023-01-15T07:58:14;6.70;99.90
4461;DHT22;2243;48.812;9.232;2023-01-15T08:00:50;6.80;99.90
4461;DHT22;2243;48.812;9.232;2023-01-15T08:03:21;6.70;99.90
4461;DHT22;2243;48.812;9.232;2023-01-15T08:05:52;6.60;99.90
4461;DHT22;2243;48.812;9.232;2023-01-15T08:08:25;6.60;99.90
4461;DHT22;2243;48.812;9.232;2023-01-15T08:11:00;6.60;99.90
4461;DHT22;2243;48.812;9.232;2023-01-15T08:13:50;6.70;99.90
4461;DHT22;2243;48.812;9.232;2023-01-15T08:16:39;6.70;99.90
4461;DHT22;2243;48.812;9.232;2023-01-15T08:19:10;6.70;99.90
4461;DHT22;2243;48.812;9.232;2023-01-15T08:21:41;6.80;99.90
4461;DHT22;2243;48.812;9.232;2023-01-15T08:24:12;6.70;99.90
4461;DHT22;2243;48.812;9.232;2023-01-15T08:26:43;6.60;99.90
4461;DHT22;2243;48.812;9.232;2023-01-15T08:29:14;6.70;99.90
4461;DHT22;2243;48.812;9.232;2023-01-15T08:31:45;6.70;99.90
4461;DHT22;2243;48.812;9.232;2023-01-15T08:34:16;6.60;99.90
4461;DHT22;2243;48.812;9.232;2023-01-15T08:36:49;6.60;99.90
4461;DHT22;2243;48.812;9.232;2023-01-15T08:39:22;6.60;99.90
4461;DHT22;2243;48.812;9.232;2023-01-15T08:41:54;6.50;99.90
4461;DHT22;2243;48.812;9.232;2023-01-15T08:44:26;6.40;99.90
4461;DHT22;2243;48.812;9.232;2023-01-15T08:46:57;6.40;99.90
4461;DHT22;2243;48.812;9.232;2023-01-15T08:49:28;6.40;99.90
4461;DHT22;2243;48.812;9.232;2023-01-15T08:52:00;6.40;99.90
4461;DHT22;2243;48.812;9.232;2023-01-15T08:54:30;6.40;99.90
4461;DHT22;2243;48.812;9.232;2023-01-15T08:57:01;6.30;99.90
4461;DHT22;2243;48.812;9.232;2023-01-15T08:59:32;6.30;99.90
4461;DHT22;2243;48.812;9.232;2023-01-15T09:02:03;6.30;99.90
4461;DHT22;2243;48.812;9.232;2023-01-15T09:04:34;6.30;99.90
4461;DHT22;2243;48.812;9.232;2023-01-15T09:07:09;6.30;99.90
4461;DHT22;2243;48.812;9.232;2023-01-15T09:09:41;6.30;99.90
4461;DHT22;2243;48.812;9.232;2023-01-15T09:12:12;6.30;99.90
4461;DHT22;2243;48.812;9.232;2023-01-15T09:14:43;6.30;99.90
4461;DHT22;2243;48.812;9.232;2023-01-15T09:17:31;6.40;99.90
4461;DHT22;2243;48.812;9.232;2023-01-15T09:20:02;6.40;99.90
4461;DHT22;2243;48.812;9.232;2023-01-15T09:22:34;6.40;99.90
4461;DHT22;2243;48.812;9.232;2023-01-15T09:25:05;6.50;99.90
4461;DHT22;2243;48.812;9.232;2023-01-15T09:27:37;6.50;99.90
4461;DHT22;2243;48.812;9.232;2023-01-15T09:30:13;6.50;99.90
4461;DHT22;2243;48.812;9.232;2023-01-15T09:32:47;6.50;99.90
4461;DHT22;2243;48.812;9.232;2023-01-15T09:35:18;6.50;99.90
4461;DHT22;2243;48.812;9.232;2023-01-15T09:37:53;6.50;99.90
4461;DHT22;2243;48.812;9.232;2023-01-15T09:40:42;6.50;99.90
4461;DHT22;2243;48.812;9.232;2023-01-15T09:43:35;6.50;99.90
4461;DHT22;2243;48.812;9.232;2023-01-15T09:49:30;6.40;99.90
4461;DHT22;2243;48.812;9.232;2023-01-15T09:52:36;6.40;99.90
4461;DHT22;2243;48.812;9.232;2023-01-15T09:58:09;6.40;99.90
4461;DHT22;2243;48.812;9.232;2023-01-15T10:00:47;6.50;99.90
4461;DHT22;2243;48.812;9.232;2023-01-15T10:06:18;6.50;99.90
4461;DHT22;2243;48.812;9.232;2023-01-15T10:11:55;6.40;99.90
4461;DHT22;2243;48.812;9.232;2023-01-15T10:15:09;6.30;99.90
4461;DHT22;2243;48.812;9.232;2023-01-15T10:17:54;6.20;99.90
4461;DHT22;2243;48.812;9.232;2023-01-15T10:20:50;6.10;99.90
4461;DHT22;2243;48.812;9.232;2023-01-15T10:23:49;6.10;99.90
4461;DHT22;2243;48.812;9.232;2023-01-15T10:31:56;5.90;99.90
4461;DHT22;2243;48.812;9.232;2023-01-15T10:35:02;5.90;99.90
4461;DHT22;2243;48.812;9.232;2023-01-15T10:41:09;5.80;99.90
4461;DHT22;2243;48.812;9.232;2023-01-15T10:44:05;5.70;99.90
4461;DHT22;2243;48.812;9.232;2023-01-15T10:46:43;5.70;99.90
4461;DHT22;2243;48.812;9.232;2023-01-15T10:49:27;5.90;99.90
4461;DHT22;2243;48.812;9.232;2023-01-15T10:52:12;5.70;99.90
4461;DHT22;2243;48.812;9.232;2023-01-15T10:54:56;5.70;99.90
4461;DHT22;2243;48.812;9.232;2023-01-15T11:00:31;5.40;99.90
4461;DHT22;2243;48.812;9.232;2023-01-15T11:03:05;5.30;99.90
4461;DHT22;2243;48.812;9.232;2023-01-15T11:05:45;5.20;99.90
4461;DHT22;2243;48.812;9.232;2023-01-15T11:08:23;5.10;99.90
4461;DHT22;2243;48.812;9.232;2023-01-15T11:11:30;5.00;99.90
4461;DHT22;2243;48.812;9.232;2023-01-15T11:14:41;5.00;99.90
4461;DHT22;2243;48.812;9.232;2023-01-15T11:17:50;4.90;99.90
4461;DHT22;2243;48.812;9.232;2023-01-15T11:20:44;4.90;99.90
4461;DHT22;2243;48.812;9.232;2023-01-15T11:23:19;4.80;99.90
4461;DHT22;2243;48.812;9.232;2023-01-15T11:25:53;4.80;99.90
4461;DHT22;2243;48.812;9.232;2023-01-15T11:28:33;4.70;99.90
4461;DHT22;2243;48.812;9.232;2023-01-15T11:31:13;4.70;99.90
4461;DHT22;2243;48.812;9.232;2023-01-15T11:33:58;4.70;99.90
4461;DHT22;2243;48.812;9.232;2023-01-15T11:36:31;4.70;99.90
4461;DHT22;2243;48.812;9.232;2023-01-15T11:39:03;4.70;99.90
4461;DHT22;2243;48.812;9.232;2023-01-15T11:41:34;4.70;99.90
4461;DHT22;2243;48.812;9.232;2023-01-15T11:44:24;4.70;99.90
4461;DHT22;2243;48.812;9.232;2023-01-15T11:47:18;4.60;99.90
4461;DHT22;2243;48.812;9.232;2023-01-15T11:50:17;4.60;99.90
4461;DHT22;2243;48.812;9.232;2023-01-15T11:53:20;4.50;99.90
4461;DHT22;2243;48.812;9.232;2023-01-15T11:56:00;4.60;99.90
4461;DHT22;2243;48.812;9.232;2023-01-15T11:58:38;4.60;99.90
4461;DHT22;2243;48.812;9.232;2023-01-15T12:01:19;4.50;99.90
4461;DHT22;2243;48.812;9.232;2023-01-15T12:03:54;4.60;99.90
4461;DHT22;2243;48.812;9.232;2023-01-15T12:06:27;4.70;99.90
4461;DHT22;2243;48.812;9.232;2023-01-15T12:12:42;4.80;99.90
4461;DHT22;2243;48.812;9.232;2023-01-15T12:15:26;4.80;99.90
4461;DHT22;2243;48.812;9.232;2023-01-15T12:18:20;4.90;99.90
4461;DHT22;2243;48.812;9.232;2023-01-15T12:24:38;4.90;99.90
4461;DHT22;2243;48.812;9.232;2023-01-15T12:30:13;5.00;99.90
4461;DHT22;2243;48.812;9.232;2023-01-15T12:35:59;5.00;99.90
4461;DHT22;2243;48.812;9.232;2023-01-15T12:39:00;5.00;99.90
4461;DHT22;2243;48.812;9.232;2023-01-15T12:41:35;5.00;99.90
4461;DHT22;2243;48.812;9.232;2023-01-15T12:44:46;5.10;99.90
4461;DHT22;2243;48.812;9.232;2023-01-15T12:53:17;5.20;99.90
4461;DHT22;2243;48.812;9.232;2023-01-15T12:59:06;5.30;99.90
4461;DHT22;2243;48.812;9.232;2023-01-15T13:08:24;5.40;99.90
4461;DHT22;2243;48.812;9.232;2023-01-15T13:10:57;5.40;99.90
4461;DHT22;2243;48.812;9.232;2023-01-15T13:13:37;5.50;99.90
4461;DHT22;2243;48.812;9.232;2023-01-15T13:16:30;5.50;99.90
4461;DHT22;2243;48.812;9.232;2023-01-15T13:19:26;5.50;99.90
4461;DHT22;2243;48.812;9.232;2023-01-15T13:22:02;5.60;99.90
4461;DHT22;2243;48.812;9.232;2023-01-15T13:24:57;5.70;99.90
4461;DHT22;2243;48.812;9.232;2023-01-15T13:33:49;5.90;99.90
4461;DHT22;2243;48.812;9.232;2023-01-15T13:36:36;5.90;99.90
4461;DHT22;2243;48.812;9.232;2023-01-15T13:39:22;6.00;99.90
4461;DHT22;2243;48.812;9.232;2023-01-15T13:41:54;6.00;99.90
4461;DHT22;2243;48.812;9.232;2023-01-15T13:44:47;6.00;99.90
4461;DHT22;2243;48.812;9.232;2023-01-15T13:47:24;5.90;99.90
4461;DHT22;2243;48.812;9.232;2023-01-15T13:50:00;6.00;99.90
4461;DHT22;2243;48.812;9.232;2023-01-15T13:52:35;6.10;99.90
4461;DHT22;2243;48.812;9.232;2023-01-15T13:55:25;6.20;99.90
4461;DHT22;2243;48.812;9.232;2023-01-15T13:58:28;6.20;99.90
4461;DHT22;2243;48.812;9.232;2023-01-15T14:06:44;6.60;99.90
4461;DHT22;2243;48.812;9.232;2023-01-15T14:21:19;7.10;99.90
4461;DHT22;2243;48.812;9.232;2023-01-15T14:24:07;7.10;99.90
4461;DHT22;2243;48.812;9.232;2023-01-15T14:26:49;7.10;99.90
4461;DHT22;2243;48.812;9.232;2023-01-15T14:29:31;7.10;99.90
4461;DHT22;2243;48.812;9.232;2023-01-15T14:35:21;6.90;99.90
4461;DHT22;2243;48.812;9.232;2023-01-15T14:37:57;6.90;99.90
4461;DHT22;2243;48.812;9.232;2023-01-15T14:40:34;6.80;99.90
4461;DHT22;2243;48.812;9.232;2023-01-15T14:43:12;6.80;99.90
4461;DHT22;2243;48.812;9.232;2023-01-15T14:45:47;6.90;99.90
4461;DHT22;2243;48.812;9.232;2023-01-15T14:51:12;6.70;99.90
4461;DHT22;2243;48.812;9.232;2023-01-15T14:53:51;6.70;99.90
4461;DHT22;2243;48.812;9.232;2023-01-15T14:56:36;6.80;99.90
4461;DHT22;2243;48.812;9.232;2023-01-15T15:01:54;6.70;99.90
4461;DHT22;2243;48.812;9.232;2023-01-15T15:04:43;6.70;99.90
4461;DHT22;2243;48.812;9.232;2023-01-15T15:07:22;6.60;99.90
4461;DHT22;2243;48.812;9.232;2023-01-15T15:12:55;6.60;99.90
4461;DHT22;2243;48.812;9.232;2023-01-15T15:15:44;6.60;99.90
4461;DHT22;2243;48.812;9.232;2023-01-15T15:18:30;6.60;99.90
4461;DHT22;2243;48.812;9.232;2023-01-15T15:21:21;6.60;99.90
4461;DHT22;2243;48.812;9.232;2023-01-15T15:24:15;6.60;99.90
4461;DHT22;2243;48.812;9.232;2023-01-15T15:27:19;6.50;99.90
4461;DHT22;2243;48.812;9.232;2023-01-15T15:30:05;6.50;99.90
4461;DHT22;2243;48.812;9.232;2023-01-15T15:32:37;6.50;99.90
4461;DHT22;2243;48.812;9.232;2023-01-15T15:35:29;6.50;99.90
4461;DHT22;2243;48.812;9.232;2023-01-15T15:38:05;6.40;99.90
4461;DHT22;2243;48.812;9.232;2023-01-15T15:40:39;6.50;99.90
4461;DHT22;2243;48.812;9.232;2023-01-15T15:43:29;6.40;99.90
4461;DHT22;2243;48.812;9.232;2023-01-15T15:46:35;6.40;99.90
4461;DHT22;2243;48.812;9.232;2023-01-15T15:49:25;6.40;99.90
4461;DHT22;2243;48.812;9.232;2023-01-15T15:51:55;6.30;99.90
4461;DHT22;2243;48.812;9.232;2023-01-15T15:54:27;6.30;99.90
4461;DHT22;2243;48.812;9.232;2023-01-15T15:57:11;6.20;99.90
4461;DHT22;2243;48.812;9.232;2023-01-15T15:59:46;6.30;99.90
4461;DHT22;2243;48.812;9.232;2023-01-15T16:02:30;6.20;99.90
4461;DHT22;2243;48.812;9.232;2023-01-15T16:07:49;6.10;99.90
4461;DHT22;2243;48.812;9.232;2023-01-15T16:10:31;6.20;99.90
4461;DHT22;2243;48.812;9.232;2023-01-15T16:13:05;6.20;99.90
4461;DHT22;2243;48.812;9.232;2023-01-15T16:15:44;6.10;99.90
4461;DHT22;2243;48.812;9.232;2023-01-15T16:18:30;6.10;99.90
4461;DHT22;2243;48.812;9.232;2023-01-15T16:21:04;6.00;99.90
4461;DHT22;2243;48.812;9.232;2023-01-15T16:23:38;6.00;99.90
4461;DHT22;2243;48.812;9.232;2023-01-15T16:26:17;5.90;99.90
4461;DHT22;2243;48.812;9.232;2023-01-15T16:28:56;5.90;99.90
4461;DHT22;2243;48.812;9.232;2023-01-15T16:31:34;5.80;99.90
4461;DHT22;2243;48.812;9.232;2023-01-15T16:34:35;5.90;99.90
4461;DHT22;2243;48.812;9.232;2023-01-15T16:37:25;5.90;99.90
4461;DHT22;2243;48.812;9.232;2023-01-15T16:40:02;5.80;99.90
4461;DHT22;2243;48.812;9.232;2023-01-15T16:42:36;5.80;99.90
4461;DHT22;2243;48.812;9.232;2023-01-15T16:45:26;5.80;99.90
4461;DHT22;2243;48.812;9.232;2023-01-15T16:50:39;5.70;99.90
4461;DHT22;2243;48.812;9.232;2023-01-15T16:53:44;5.60;99.90
4461;DHT22;2243;48.812;9.232;2023-01-15T17:02:39;5.60;99.90
4461;DHT22;2243;48.812;9.232;2023-01-15T17:05:16;5.50;99.90
4461;DHT22;2243;48.812;9.232;2023-01-15T17:07:52;5.60;99.90
4461;DHT22;2243;48.812;9.232;2023-01-15T17:10:26;5.50;99.90
4461;DHT22;2243;48.812;9.232;2023-01-15T17:13:02;5.50;99.90
4461;DHT22;2243;48.812;9.232;2023-01-15T17:15:39;5.50;99.90
4461;DHT22;2243;48.812;9.232;2023-01-15T17:18:25;5.40;99.90
4461;DHT22;2243;48.812;9.232;2023-01-15T17:20:58;5.40;99.90
4461;DHT22;2243;48.812;9.232;2023-01-15T17:23:34;5.50;99.90
4461;DHT22;2243;48.812;9.232;2023-01-15T17:26:16;5.50;99.90
4461;DHT22;2243;48.812;9.232;2023-01-15T17:28:52;5.50;99.90
4461;DHT22;2243;48.812;9.232;2023-01-15T17:31:30;5.50;99.90
4461;DHT22;2243;48.812;9.232;2023-01-15T17:34:05;5.50;99.90
4461;DHT22;2243;48.812;9.232;2023-01-15T17:36:36;5.40;99.90
4461;DHT22;2243;48.812;9.232;2023-01-15T17:39:08;5.40;99.90
4461;DHT22;2243;48.812;9.232;2023-01-15T17:41:45;5.40;99.90
4461;DHT22;2243;48.812;9.232;2023-01-15T17:44:16;5.40;99.90
4461;DHT22;2243;48.812;9.232;2023-01-15T17:46:47;5.50;99.90
4461;DHT22;2243;48.812;9.232;2023-01-15T17:49:21;5.40;99.90
4461;DHT22;2243;48.812;9.232;2023-01-15T17:51:54;5.30;99.90
4461;DHT22;2243;48.812;9.232;2023-01-15T17:54:28;5.40;99.90
4461;DHT22;2243;48.812;9.232;2023-01-15T17:57:17;5.40;99.90
4461;DHT22;2243;48.812;9.232;2023-01-15T18:00:09;5.40;99.90
4461;DHT22;2243;48.812;9.232;2023-01-15T18:03:01;5.30;99.90
4461;DHT22;2243;48.812;9.232;2023-01-15T18:05:51;5.30;99.90
4461;DHT22;2243;48.812;9.232;2023-01-15T18:08:24;5.30;99.90
4461;DHT22;2243;48.812;9.232;2023-01-15T18:10:59;5.10;99.90
4461;DHT22;2243;48.812;9.232;2023-01-15T18:13:35;5.10;99.90
4461;DHT22;2243;48.812;9.232;2023-01-15T18:16:06;5.10;99.90
4461;DHT22;2243;48.812;9.232;2023-01-15T18:18:38;5.10;99.90
4461;DHT22;2243;48.812;9.232;2023-01-15T18:21:09;5.10;99.90
4461;DHT22;2243;48.812;9.232;2023-01-15T18:23:40;5.20;99.90
4461;DHT22;2243;48.812;9.232;2023-01-15T18:26:11;5.20;99.90
4461;DHT22;2243;48.812;9.232;2023-01-15T18:28:46;5.10;99.90
4461;DHT22;2243;48.812;9.232;2023-01-15T18:31:19;5.10;99.90
4461;DHT22;2243;48.812;9.232;2023-01-15T18:33:50;5.00;99.90
4461;DHT22;2243;48.812;9.232;2023-01-15T18:36:21;5.10;99.90
4461;DHT22;2243;48.812;9.232;2023-01-15T18:38:53;5.00;99.90
4461;DHT22;2243;48.812;9.232;2023-01-15T18:41:32;5.00;99.90
4461;DHT22;2243;48.812;9.232;2023-01-15T18:44:15;4.90;99.90
4461;DHT22;2243;48.812;9.232;2023-01-15T18:47:10;5.00;99.90
4461;DHT22;2243;48.812;9.232;2023-01-15T18:49:45;5.00;99.90
4461;DHT22;2243;48.812;9.232;2023-01-15T18:52:18;4.90;99.90
4461;DHT22;2243;48.812;9.232;2023-01-15T18:55:08;5.00;99.90
4461;DHT22;2243;48.812;9.232;2023-01-15T18:57:39;5.10;99.90
4461;DHT22;2243;48.812;9.232;2023-01-15T19:00:11;5.00;99.90
4461;DHT22;2243;48.812;9.232;2023-01-15T19:02:45;5.00;99.90
4461;DHT22;2243;48.812;9.232;2023-01-15T19:05:17;5.00;99.90
4461;DHT22;2243;48.812;9.232;2023-01-15T19:07:50;5.00;99.90
4461;DHT22;2243;48.812;9.232;2023-01-15T19:10:21;5.00;99.90
4461;DHT22;2243;48.812;9.232;2023-01-15T19:12:54;5.00;99.90
4461;DHT22;2243;48.812;9.232;2023-01-15T19:15:25;5.10;99.90
4461;DHT22;2243;48.812;9.232;2023-01-15T19:18:17;5.10;99.90
4461;DHT22;2243;48.812;9.232;2023-01-15T19:21:10;5.20;99.90
4461;DHT22;2243;48.812;9.232;2023-01-15T19:23:42;5.20;99.90
4461;DHT22;2243;48.812;9.232;2023-01-15T19:26:16;5.20;99.90